Time;durP1;ratioP1;P1;durP2;ratioP2;P2;SDS_P1;SDS_P2;PMS_P1;PMS_P2;Temp;Humidity;BMP_temperature;BMP_pressure;BME280_temperature;BME280_humidity;BME280_pressure;Samples;Min_cycle;Max_cycle;Signal;HPM_P1;HPM_P2
2023/02/21 02:15:32;;;;;;;36.03;16.42;;;;;;;8.59;100.00;101321.53;6251012;28;20053;-71
2023/02/21 02:19:03;;;;;;;38.33;16.05;;;;;;;8.59;100.00;101321.53;6243708;28;20048;-71
2023/02/21 02:22:25;;;;;;;38.20;14.93;;;;;;;8.57;100.00;101322.50;6244689;28;20478;-71
2023/02/21 02:25:44;;;;;;;42.58;16.70;;;;;;;8.61;100.00;101317.09;6239080;28;20046;-71
2023/02/21 02:29:05;;;;;;;41.88;16.02;;;;;;;8.58;100.00;101314.59;6251055;28;20068;-71
2023/02/21 02:32:34;;;;;;;41.60;16.10;;;;;;;8.56;100.00;101321.66;6251181;28;20056;-71
2023/02/21 02:35:44;;;;;;;42.45;16.58;;;;;;;8.55;100.00;101311.22;6249054;28;20041;-71
2023/02/21 02:38:56;;;;;;;43.33;16.13;;;;;;;8.59;100.00;101318.91;6250649;28;20354;-71
2023/02/21 02:42:06;;;;;;;31.23;13.30;;;;;;;8.55;100.00;101319.94;6250781;28;20057;-71
2023/02/21 02:45:14;;;;;;;42.42;16.00;;;;;;;8.54;100.00;101318.25;6250701;28;20052;-72
2023/02/21 02:48:21;;;;;;;44.88;15.52;;;;;;;8.62;100.00;101317.94;6250825;28;20454;-71
2023/02/21 02:51:26;;;;;;;38.53;16.27;;;;;;;8.59;100.00;101320.69;6250322;28;20343;-71
2023/02/21 02:54:27;;;;;;;50.80;15.98;;;;;;;8.59;100.00;101313.69;6250502;28;20087;-71
2023/02/21 02:57:37;;;;;;;36.85;13.55;;;;;;;8.56;100.00;101318.16;6250299;28;20053;-71
2023/02/21 03:00:41;;;;;;;40.83;16.58;;;;;;;8.53;100.00;101315.66;6250586;28;20049;-71
2023/02/21 03:03:53;;;;;;;43.67;15.70;;;;;;;8.50;100.00;101314.00;6245321;28;20046;-71
2023/02/21 03:07:06;;;;;;;47.05;17.15;;;;;;;8.56;100.00;101324.25;6250658;28;20049;-71
2023/02/21 03:10:14;;;;;;;41.42;15.68;;;;;;;8.54;100.00;101333.06;6250342;28;20061;-71
2023/02/21 03:13:21;;;;;;;50.70;15.60;;;;;;;8.52;100.00;101332.28;6250145;28;20049;-71
2023/02/21 03:16:26;;;;;;;39.35;14.95;;;;;;;8.51;100.00;101327.97;6250194;28;20050;-71
2023/02/21 03:19:31;;;;;;;51.03;17.17;;;;;;;8.53;100.00;101324.38;6242286;28;20041;-71
2023/02/21 03:22:35;;;;;;;41.63;16.55;;;;;;;8.56;100.00;101328.66;6255053;28;20350;-71
2023/02/21 03:25:38;;;;;;;39.67;15.95;;;;;;;8.57;100.00;101325.97;6254887;28;20049;-72
2023/02/21 03:28:41;;;;;;;48.97;17.65;;;;;;;8.57;100.00;101332.97;6254839;28;20045;-71
2023/02/21 03:31:46;;;;;;;42.58;16.63;;;;;;;8.60;100.00;101330.25;6254977;28;20442;-71
2023/02/21 03:34:47;;;;;;;46.67;17.80;;;;;;;8.60;100.00;101335.50;6253035;28;20049;-71
2023/02/21 03:37:52;;;;;;;42.90;15.55;;;;;;;8.61;100.00;101347.69;6254712;28;20060;-71
2023/02/21 03:40:54;;;;;;;51.97;17.50;;;;;;;8.54;100.00;101330.44;6254792;28;20175;-71
2023/02/21 03:43:55;;;;;;;43.03;16.35;;;;;;;8.58;100.00;101337.28;6254653;28;20078;-71
2023/02/21 03:46:57;;;;;;;47.67;17.73;;;;;;;8.60;100.00;101336.34;6254359;28;20049;-71
2023/02/21 03:50:03;;;;;;;48.72;18.73;;;;;;;8.60;100.00;101327.63;6246686;28;20057;-71
2023/02/21 03:53:06;;;;;;;47.22;16.50;;;;;;;8.61;100.00;101319.72;6242153;28;20049;-71
2023/02/21 03:56:08;;;;;;;45.20;16.05;;;;;;;8.63;100.00;101325.78;6229724;28;20064;-71
2023/02/21 03:59:09;;;;;;;39.63;15.20;;;;;;;8.64;100.00;101321.38;6229640;28;20050;-71
2023/02/21 04:02:10;;;;;;;36.10;15.27;;;;;;;8.57;100.00;101314.63;6229418;28;20038;-71
2023/02/21 04:05:12;;;;;;;41.35;15.70;;;;;;;8.54;100.00;101318.25;6253968;28;20429;-71
2023/02/21 04:08:14;;;;;;;37.22;15.48;;;;;;;8.54;100.00;101315.63;6254008;28;20049;-71
2023/02/21 04:11:18;;;;;;;38.90;15.88;;;;;;;8.50;100.00;101316.63;6253954;28;20053;-71
2023/02/21 04:14:19;;;;;;;43.92;17.55;;;;;;;8.56;100.00;101319.03;6253640;28;20046;-75
2023/02/21 04:17:20;;;;;;;36.72;15.35;;;;;;;8.51;100.00;101315.72;6252003;28;20042;-74
2023/02/21 04:20:22;;;;;;;43.75;17.10;;;;;;;8.54;100.00;101314.72;6249188;28;20068;-75
2023/02/21 04:23:24;;;;;;;42.53;14.43;;;;;;;8.55;100.00;101306.84;6253708;28;20049;-75
2023/02/21 04:26:28;;;;;;;36.38;15.43;;;;;;;8.61;100.00;101326.72;6253458;28;20042;-75
2023/02/21 04:29:30;;;;;;;36.83;14.02;;;;;;;8.61;100.00;101305.75;6253677;28;20054;-75
2023/02/21 04:32:31;;;;;;;33.38;14.55;;;;;;;8.64;100.00;101300.41;6251190;28;20045;-75
2023/02/21 04:35:32;;;;;;;43.25;14.88;;;;;;;8.70;100.00;101294.09;6253128;28;20041;-75
2023/02/21 04:38:36;;;;;;;45.75;16.25;;;;;;;8.70;100.00;101296.72;6253387;28;20052;-75
2023/02/21 04:41:38;;;;;;;41.60;15.73;;;;;;;8.62;100.00;101300.44;6253668;28;20049;-74
2023/02/21 04:44:40;;;;;;;35.10;13.80;;;;;;;8.74;100.00;101293.91;6245118;28;20049;-75
2023/02/21 04:47:41;;;;;;;35.20;14.63;;;;;;;8.69;100.00;101285.38;6247340;28;20056;-75
2023/02/21 04:50:42;;;;;;;30.33;14.38;;;;;;;8.64;100.00;101289.94;6224187;28;20053;-75
2023/02/21 04:53:47;;;;;;;32.88;13.23;;;;;;;8.57;100.00;101291.91;6208376;28;20069;-75
2023/02/21 04:56:48;;;;;;;38.33;14.25;;;;;;;8.69;100.00;101290.63;6208758;28;20358;-75
2023/02/21 04:59:56;;;;;;;29.70;12.65;;;;;;;8.64;100.00;101293.41;6207751;28;20046;-75
2023/02/21 05:02:57;;;;;;;30.98;12.90;;;;;;;8.73;100.00;101280.88;6227041;28;20041;-76
2023/02/21 05:05:58;;;;;;;31.98;12.55;;;;;;;8.71;100.00;101290.56;6231769;28;20045;-75
2023/02/21 05:09:02;;;;;;;37.88;13.80;;;;;;;8.75;100.00;101295.63;6230927;28;20052;-75
2023/02/21 05:12:10;;;;;;;31.13;13.30;;;;;;;8.73;100.00;101296.59;6238664;28;20052;-75
2023/02/21 05:15:14;;;;;;;30.38;13.10;;;;;;;8.73;100.00;101294.00;6206583;28;20554;-76
2023/02/21 05:18:21;;;;;;;31.63;13.27;;;;;;;8.72;100.00;101302.75;6206135;28;20050;-75
2023/02/21 05:21:22;;;;;;;32.40;13.40;;;;;;;8.73;100.00;101300.09;6207211;28;20528;-75
2023/02/21 05:24:26;;;;;;;34.40;13.95;;;;;;;8.74;100.00;101291.31;6211086;28;20053;-74
2023/02/21 05:27:27;;;;;;;26.77;12.18;;;;;;;8.75;100.00;101292.16;6206687;28;20604;-75
2023/02/21 05:30:28;;;;;;;37.67;14.45;;;;;;;8.81;100.00;101294.53;6207798;28;20053;-75
2023/02/21 05:33:30;;;;;;;32.22;13.10;;;;;;;8.81;100.00;101291.91;6222991;28;20045;-75
2023/02/21 05:36:31;;;;;;;33.50;13.77;;;;;;;8.71;100.00;101298.41;6235244;28;20045;-74
2023/02/21 05:39:34;;;;;;;32.47;14.05;;;;;;;8.69;100.00;101287.16;6237563;28;20052;-74
2023/02/21 05:42:35;;;;;;;31.20;13.70;;;;;;;8.69;100.00;101295.88;6227064;28;20053;-74
2023/02/21 05:45:36;;;;;;;32.58;13.57;;;;;;;8.73;100.00;101286.97;6217153;28;20054;-75
2023/02/21 05:48:38;;;;;;;35.78;14.43;;;;;;;8.76;100.00;101276.38;6231184;28;20484;-75
2023/02/21 05:51:41;;;;;;;35.80;14.00;;;;;;;8.79;100.00;101281.50;6245987;28;20054;-74
2023/02/21 05:54:44;;;;;;;32.55;13.13;;;;;;;8.78;100.00;101286.81;6251463;28;20049;-74
2023/02/21 05:57:45;;;;;;;32.60;13.27;;;;;;;8.79;100.00;101285.88;6257492;28;20053;-74
2023/02/21 06:00:47;;;;;;;28.95;14.20;;;;;;;8.76;100.00;101296.47;6241307;28;20054;-74
2023/02/21 06:03:48;;;;;;;32.20;14.13;;;;;;;8.82;100.00;101288.41;6236855;28;20460;-74
2023/02/21 06:06:50;;;;;;;32.67;13.23;;;;;;;8.83;100.00;101284.88;6237794;28;20053;-74
2023/02/21 06:09:52;;;;;;;38.70;15.55;;;;;;;8.86;100.00;101290.84;6238890;28;20049;-74
2023/02/21 06:12:54;;;;;;;34.47;14.63;;;;;;;8.80;100.00;101293.69;6250984;28;20045;-74
2023/02/21 06:15:55;;;;;;;28.80;12.95;;;;;;;8.80;100.00;101308.56;6250840;28;20045;-75
2023/02/21 06:18:57;;;;;;;30.50;14.50;;;;;;;8.83;100.00;101311.06;6250892;28;20361;-74
2023/02/21 06:21:58;;;;;;;36.80;15.52;;;;;;;8.80;100.00;101303.31;6247882;28;20048;-74
2023/02/21 06:25:01;;;;;;;34.45;14.13;;;;;;;8.90;100.00;101299.44;6241955;28;20449;-74
2023/02/21 06:28:02;;;;;;;31.55;13.40;;;;;;;8.87;100.00;101303.03;6247685;28;20053;-74
2023/02/21 06:31:04;;;;;;;29.77;13.50;;;;;;;8.84;100.00;101315.41;6248192;28;20346;-74
2023/02/21 06:34:05;;;;;;;37.17;16.23;;;;;;;8.86;100.00;101313.59;6250436;28;20053;-74
2023/02/21 06:37:07;;;;;;;31.30;13.43;;;;;;;8.88;100.00;101325.72;6250434;28;20054;-74
2023/02/21 06:40:10;;;;;;;32.65;13.32;;;;;;;8.88;100.00;101322.25;6242809;28;20057;-74
2023/02/21 06:43:11;;;;;;;32.58;14.27;;;;;;;8.93;100.00;101332.56;6249941;28;20049;-74
2023/02/21 06:46:16;;;;;;;41.05;15.30;;;;;;;8.86;100.00;101330.16;6250279;28;20376;-74
2023/02/21 06:49:18;;;;;;;31.20;14.60;;;;;;;8.87;100.00;101337.13;6250593;28;20140;-74
2023/02/21 06:52:19;;;;;;;32.65;14.10;;;;;;;8.90;100.00;101336.13;6250347;28;20056;-74
2023/02/21 06:55:22;;;;;;;32.22;13.73;;;;;;;8.87;100.00;101349.38;6249878;28;20037;-73
2023/02/21 06:58:24;;;;;;;35.13;14.27;;;;;;;8.82;100.00;101335.59;6250252;28;20049;-74
2023/02/21 07:01:26;;;;;;;31.15;13.10;;;;;;;8.83;100.00;101334.66;6248505;28;20052;-74
2023/02/21 07:04:28;;;;;;;37.97;15.05;;;;;;;8.87;100.00;101341.50;6244860;28;20570;-74
2023/02/21 07:07:29;;;;;;;37.83;13.23;;;;;;;8.93;100.00;101348.28;6246242;28;20056;-74
2023/02/21 07:10:32;;;;;;;36.35;13.98;;;;;;;8.93;100.00;101345.66;6242756;28;20104;-74
2023/02/21 07:13:34;;;;;;;32.72;15.35;;;;;;;8.91;100.00;101350.13;6249901;28;20041;-74
2023/02/21 07:16:35;;;;;;;32.70;14.95;;;;;;;8.91;100.00;101352.75;6249914;28;20049;-74
2023/02/21 07:19:37;;;;;;;34.42;13.32;;;;;;;8.96;100.00;101348.19;6250269;28;20046;-74
2023/02/21 07:22:38;;;;;;;32.45;13.95;;;;;;;8.93;100.00;101351.75;6243736;28;20057;-74
2023/02/21 07:25:41;;;;;;;34.88;13.65;;;;;;;8.93;100.00;101354.38;6245249;28;20056;-74
2023/02/21 07:28:42;;;;;;;33.00;14.73;;;;;;;8.98;100.00;101357.69;6239168;28;20061;-74
2023/02/21 07:31:44;;;;;;;39.70;14.88;;;;;;;9.00;100.00;101355.03;6240147;28;20046;-74
2023/02/21 07:34:45;;;;;;;34.58;15.25;;;;;;;8.98;100.00;101359.44;6240535;28;20045;-74
2023/02/21 07:37:46;;;;;;;43.03;14.95;;;;;;;8.97;100.00;101365.59;6240570;28;20057;-74
2023/02/21 07:40:49;;;;;;;35.50;14.55;;;;;;;8.99;100.00;101372.47;6248222;28;20056;-74
2023/02/21 07:43:51;;;;;;;36.53;15.18;;;;;;;9.04;100.00;101377.59;6237243;28;20356;-74
2023/02/21 07:46:52;;;;;;;37.83;14.68;;;;;;;9.06;100.00;101381.84;6247137;28;20042;-74
2023/02/21 07:49:54;;;;;;;40.28;13.90;;;;;;;9.05;100.00;101377.53;6237035;28;20357;-74
2023/02/21 07:52:55;;;;;;;35.42;14.27;;;;;;;9.03;100.00;101375.84;6236791;28;20052;-74
2023/02/21 07:55:58;;;;;;;31.30;14.23;;;;;;;9.04;100.00;101378.44;6238062;28;20041;-74
2023/02/21 07:58:59;;;;;;;32.30;14.38;;;;;;;9.01;100.00;101388.19;6249801;28;20049;-74
2023/02/21 08:02:01;;;;;;;32.25;15.23;;;;;;;9.12;100.00;101380.75;6236631;28;20049;-74
2023/02/21 08:05:05;;;;;;;30.02;15.10;;;;;;;9.08;100.00;101390.53;6233124;28;20434;-74
2023/02/21 08:08:07;;;;;;;33.92;15.20;;;;;;;9.03;100.00;101394.22;6233310;28;20053;-74
2023/02/21 08:11:10;;;;;;;33.55;14.50;;;;;;;8.98;100.00;101397.00;6237727;28;20046;-74
2023/02/21 08:14:11;;;;;;;39.40;15.88;;;;;;;9.05;100.00;101395.03;6237858;28;20050;-74
2023/02/21 08:17:13;;;;;;;38.33;14.32;;;;;;;9.05;100.00;101389.78;6237421;28;20041;-74
2023/02/21 08:20:14;;;;;;;33.92;13.93;;;;;;;9.03;100.00;101395.06;6240952;28;20042;-74
2023/02/21 08:23:17;;;;;;;31.52;13.85;;;;;;;9.06;100.00;101389.72;6239078;28;20041;-74
2023/02/21 08:26:20;;;;;;;38.90;14.23;;;;;;;9.04;100.00;101396.78;6238971;28;20327;-74
2023/02/21 08:29:21;;;;;;;40.83;15.20;;;;;;;9.05;100.00;101398.50;6234538;28;20052;-75
2023/02/21 08:32:22;;;;;;;39.17;16.08;;;;;;;9.06;100.00;101396.72;6233540;28;20054;-73
2023/02/21 08:35:24;;;;;;;38.83;15.23;;;;;;;9.09;100.00;101400.09;6237563;28;20038;-73
2023/02/21 08:38:25;;;;;;;39.72;14.82;;;;;;;9.10;100.00;101404.44;6238443;28;20041;-73
2023/02/21 08:41:37;;;;;;;32.58;14.48;;;;;;;9.08;100.00;101405.38;6237035;28;20076;-73
2023/02/21 08:44:38;;;;;;;42.58;15.23;;;;;;;9.08;100.00;101411.50;6236561;28;20042;-74
2023/02/21 08:47:39;;;;;;;29.50;14.07;;;;;;;9.07;100.00;101408.91;6239732;28;20050;-74
2023/02/21 08:50:41;;;;;;;38.50;13.93;;;;;;;9.10;100.00;101412.28;6239615;28;20373;-73
2023/02/21 08:53:43;;;;;;;38.35;15.15;;;;;;;9.15;100.00;101417.38;6237566;28;20053;-73
2023/02/21 08:56:46;;;;;;;36.03;15.60;;;;;;;9.18;100.00;101421.66;6243009;28;20045;-73
2023/02/21 08:59:48;;;;;;;39.88;14.75;;;;;;;9.19;100.00;101432.09;6241485;28;20050;-73
2023/02/21 09:02:50;;;;;;;43.00;15.48;;;;;;;9.17;100.00;101426.03;6248607;28;20049;-73
2023/02/21 09:05:52;;;;;;;39.08;15.50;;;;;;;9.16;100.00;101432.19;6252605;28;20069;-73
2023/02/21 09:08:53;;;;;;;35.95;15.25;;;;;;;9.11;100.00;101429.72;6253249;28;20062;-74
2023/02/21 09:11:55;;;;;;;36.42;15.90;;;;;;;9.17;100.00;101433.03;6227925;28;20053;-74
2023/02/21 09:14:57;;;;;;;32.53;14.43;;;;;;;9.17;100.00;101433.03;6227784;28;20056;-74
2023/02/21 09:17:59;;;;;;;34.10;14.70;;;;;;;9.23;100.00;101443.31;6243951;28;20053;-73
2023/02/21 09:21:01;;;;;;;39.40;15.75;;;;;;;9.32;100.00;101433.34;6252499;28;20065;-74
2023/02/21 09:24:04;;;;;;;36.50;15.63;;;;;;;9.30;100.00;101444.78;6247589;28;20052;-74
2023/02/21 09:27:07;;;;;;;32.10;13.57;;;;;;;9.29;100.00;101441.31;6249660;28;20053;-74
2023/02/21 09:30:11;;;;;;;35.33;14.55;;;;;;;9.33;100.00;101440.28;6234585;28;20053;-73
2023/02/21 09:33:13;;;;;;;32.00;12.80;;;;;;;9.35;100.00;101435.84;6251929;28;20361;-74
2023/02/21 09:36:14;;;;;;;33.60;14.40;;;;;;;9.37;100.00;101438.41;6251478;28;20041;-74
2023/02/21 09:39:16;;;;;;;38.30;14.82;;;;;;;9.46;100.00;101437.22;6252098;28;20061;-74
2023/02/21 09:42:21;;;;;;;35.58;15.60;;;;;;;9.44;100.00;101442.50;6251910;28;20057;-74
2023/02/21 09:45:31;;;;;;;37.30;12.68;;;;;;;9.51;100.00;101448.41;6251811;28;20460;-73
2023/02/21 09:48:33;;;;;;;35.33;14.07;;;;;;;9.47;100.00;101438.94;6251633;28;20041;-73
2023/02/21 09:51:40;;;;;;;38.95;15.60;;;;;;;9.46;100.00;101438.06;6243661;28;20437;-73
2023/02/21 09:54:46;;;;;;;36.80;14.70;;;;;;;9.52;100.00;101447.47;6251833;28;20045;-74
2023/02/21 09:57:48;;;;;;;33.42;14.18;;;;;;;9.58;100.00;101447.22;6251283;28;20052;-74
2023/02/21 10:00:50;;;;;;;32.17;12.95;;;;;;;9.59;100.00;101436.69;6242793;28;20064;-74
2023/02/21 10:04:03;;;;;;;32.83;13.70;;;;;;;9.64;100.00;101447.03;6246534;28;20446;-74
2023/02/21 10:07:13;;;;;;;33.90;12.50;;;;;;;9.62;100.00;101460.19;6242449;28;20069;-74
2023/02/21 10:10:19;;;;;;;29.70;12.48;;;;;;;9.60;100.00;101450.66;6231874;28;20046;-73
2023/02/21 10:13:34;;;;;;;27.70;13.80;;;;;;;9.59;100.00;101446.34;6227769;28;20468;-72
2023/02/21 10:16:42;;;;;;;30.25;12.27;;;;;;;9.54;100.00;101453.53;6234610;28;20057;-72
2023/02/21 10:19:48;;;;;;;33.83;13.38;;;;;;;9.64;100.00;101466.25;6242886;28;20052;-71
2023/02/21 10:22:51;;;;;;;31.40;13.10;;;;;;;9.64;100.00;101454.91;6226442;28;20057;-73
2023/02/21 10:25:57;;;;;;;28.13;12.05;;;;;;;9.66;100.00;101450.44;6226043;28;20049;-71
2023/02/21 10:29:01;;;;;;;28.27;12.38;;;;;;;9.70;100.00;101461.66;6227664;28;20080;-72
2023/02/21 10:32:03;;;;;;;28.50;12.32;;;;;;;9.71;100.00;101460.75;6238139;28;20346;-71
2023/02/21 10:35:05;;;;;;;31.98;15.07;;;;;;;9.72;100.00;101470.31;6241180;28;20050;-72
2023/02/21 10:38:11;;;;;;;31.17;13.10;;;;;;;9.58;100.00;101466.47;6225867;28;20050;-72
2023/02/21 10:41:13;;;;;;;31.85;11.93;;;;;;;9.62;100.00;101460.19;6227996;28;20049;-73
2023/02/21 10:44:21;;;;;;;29.70;12.80;;;;;;;9.69;100.00;101466.06;6231798;28;20560;-72
2023/02/21 10:47:26;;;;;;;28.25;11.57;;;;;;;9.66;100.00;101469.66;6225787;28;20052;-72
2023/02/21 10:50:42;;;;;;;29.08;12.32;;;;;;;9.70;100.00;101466.91;6226078;28;20046;-71
2023/02/21 10:53:45;;;;;;;28.42;12.55;;;;;;;9.68;100.00;101474.88;6250461;28;20057;-71
2023/02/21 10:56:47;;;;;;;29.98;12.50;;;;;;;9.67;100.00;101475.75;6249064;28;20052;-78
2023/02/21 10:59:50;;;;;;;25.55;11.85;;;;;;;9.69;100.00;101473.94;6254932;28;20357;-76
2023/02/21 11:02:56;;;;;;;25.27;11.32;;;;;;;9.74;100.00;101465.88;6242370;28;20133;-71
2023/02/21 11:05:58;;;;;;;30.50;11.80;;;;;;;9.76;100.00;101464.06;6225253;28;20354;-72
2023/02/21 11:09:00;;;;;;;29.02;11.50;;;;;;;9.90;100.00;101460.00;6242529;28;20052;-72
2023/02/21 11:12:05;;;;;;;31.52;13.75;;;;;;;9.98;100.00;101451.81;6249993;28;20056;-72
2023/02/21 11:15:18;;;;;;;29.75;12.60;;;;;;;9.90;100.00;101459.13;6249941;28;20594;-72
2023/02/21 11:18:24;;;;;;;26.88;11.77;;;;;;;9.98;100.00;101454.44;6244739;28;20461;-72
2023/02/21 11:21:25;;;;;;;25.80;11.65;;;;;;;9.98;100.00;101456.19;6228924;28;20048;-73
2023/02/21 11:24:27;;;;;;;27.10;12.38;;;;;;;10.01;100.00;101458.72;6231691;28;20049;-73
2023/02/21 11:27:31;;;;;;;35.05;11.50;;;;;;;9.99;100.00;101463.16;6239485;28;20053;-73
2023/02/21 11:30:37;;;;;;;31.67;13.13;;;;;;;9.96;100.00;101453.66;6242863;28;20422;-72
2023/02/21 11:33:41;;;;;;;26.38;12.63;;;;;;;10.00;100.00;101454.38;6247722;28;20057;-72
2023/02/21 11:36:45;;;;;;;30.48;12.48;;;;;;;10.06;100.00;101446.25;6243135;28;20077;-73
2023/02/21 11:39:51;;;;;;;24.48;10.93;;;;;;;10.09;100.00;101454.03;6224560;28;20060;-73
2023/02/21 11:43:10;;;;;;;26.08;11.68;;;;;;;10.07;100.00;101448.81;6243551;28;20540;-73
2023/02/21 11:46:19;;;;;;;27.35;11.27;;;;;;;10.11;100.00;101442.53;6248632;28;20042;-73
2023/02/21 11:49:28;;;;;;;25.58;11.10;;;;;;;10.16;100.00;101445.81;6254552;28;20052;-73
2023/02/21 11:52:34;;;;;;;28.25;11.73;;;;;;;10.30;100.00;101444.44;6254515;28;20042;-73
2023/02/21 11:55:37;;;;;;;21.23;10.32;;;;;;;10.38;100.00;101451.09;6254126;28;20052;-73
2023/02/21 11:58:47;;;;;;;25.35;10.45;;;;;;;10.47;100.00;101454.25;6254197;28;20050;-73
2023/02/21 12:02:03;;;;;;;28.42;10.82;;;;;;;10.41;100.00;101444.84;6244780;28;20049;-73
2023/02/21 12:05:18;;;;;;;26.63;11.45;;;;;;;10.44;100.00;101444.72;6254324;28;20060;-73
2023/02/21 12:08:41;;;;;;;28.35;11.55;;;;;;;10.46;100.00;101448.16;6254078;28;20048;-73
2023/02/21 12:12:01;;;;;;;29.98;11.85;;;;;;;10.49;100.00;101449.78;6254151;28;20053;-73
2023/02/21 12:15:15;;;;;;;27.42;11.75;;;;;;;10.46;100.00;101452.56;6246308;28;20048;-73
2023/02/21 12:18:44;;;;;;;26.98;12.07;;;;;;;10.54;100.00;101443.44;6253773;28;20049;-73
2023/02/21 12:21:56;;;;;;;;;;;;;;;10.45;100.00;101440.34;6252830;28;20056;-72
2023/02/21 12:25:11;;;;;;;34.72;12.48;;;;;;;10.41;100.00;101436.97;6253469;28;20237;-73
2023/02/21 12:28:20;;;;;;;25.08;11.93;;;;;;;10.39;100.00;101454.56;6253662;28;20056;-73
2023/02/21 12:31:33;;;;;;;29.80;11.23;;;;;;;10.38;100.00;101439.72;6252014;28;20050;-73
2023/02/21 12:34:51;;;;;;;30.83;13.65;;;;;;;10.35;100.00;101443.31;6253615;28;20444;-72
2023/02/21 12:38:02;;;;;;;27.17;13.30;;;;;;;10.36;100.00;101436.31;6244387;28;20045;-73
2023/02/21 12:41:12;;;;;;;27.70;11.60;;;;;;;10.40;100.00;101430.00;6236368;28;20045;-73
2023/02/21 12:44:16;;;;;;;34.03;12.10;;;;;;;10.35;100.00;101443.31;6244534;28;20057;-73
2023/02/21 12:47:22;;;;;;;26.65;11.52;;;;;;;10.24;100.00;101444.66;6236481;28;20350;-73
2023/02/21 12:50:31;;;;;;;31.13;12.00;;;;;;;10.25;100.00;101436.75;6241729;28;20041;-73
2023/02/21 12:53:37;;;;;;;26.95;11.57;;;;;;;10.27;100.00;101440.19;6228603;28;20041;-72
2023/02/21 12:56:46;;;;;;;33.75;13.02;;;;;;;10.32;100.00;101440.84;6231521;28;20041;-73
2023/02/21 12:59:56;;;;;;;25.00;10.77;;;;;;;10.34;100.00;101433.72;6232311;28;20041;-76
2023/02/21 13:03:05;;;;;;;31.52;12.20;;;;;;;10.38;100.00;101439.72;6236191;28;20049;-73
2023/02/21 13:06:15;;;;;;;27.35;11.68;;;;;;;10.38;100.00;101430.06;6237680;28;20430;-73
2023/02/21 13:09:25;;;;;;;34.03;12.10;;;;;;;10.34;100.00;101431.09;6229094;28;20349;-72
2023/02/21 13:12:33;;;;;;;32.00;11.30;;;;;;;10.34;100.00;101430.25;6236135;28;20338;-73
2023/02/21 13:15:36;;;;;;;24.52;11.85;;;;;;;10.28;100.00;101434.00;6234381;28;20425;-71
2023/02/21 13:18:42;;;;;;;31.65;11.60;;;;;;;10.21;100.00;101427.25;6230543;28;20050;-72
2023/02/21 13:25:42;;;;;;;37.10;12.50;;;;;;;10.23;100.00;101419.31;6253606;28;20053;-72
2023/02/21 13:28:44;;;;;;;30.30;12.13;;;;;;;10.24;100.00;101419.28;6235991;28;20057;-72
2023/02/21 13:31:46;;;;;;;32.13;12.18;;;;;;;10.25;100.00;101415.72;6227412;28;20141;-72
2023/02/21 13:34:54;;;;;;;35.55;13.23;;;;;;;10.27;100.00;101418.31;6227460;28;20053;-72
2023/02/21 13:37:59;;;;;;;30.25;12.48;;;;;;;10.19;100.00;101418.59;6243316;28;20369;-72
2023/02/21 13:41:08;;;;;;;27.77;11.73;;;;;;;10.21;100.00;101410.63;6243942;28;20049;-72
2023/02/21 13:44:16;;;;;;;32.67;11.20;;;;;;;10.26;100.00;101412.16;6251663;28;20192;-72
2023/02/21 13:47:19;;;;;;;26.30;10.40;;;;;;;10.17;100.00;101412.53;6251789;28;20053;-72
2023/02/21 13:50:44;;;;;;;23.17;9.80;;;;;;;10.08;100.00;101415.53;6243527;28;20449;-72
2023/02/21 13:54:08;;;;;;;31.02;11.05;;;;;;;10.03;100.00;101399.09;6251446;28;20045;-71
2023/02/21 13:57:31;;;;;;;26.35;12.10;;;;;;;10.01;100.00;101404.41;6251158;28;20128;-72
2023/02/21 14:00:47;;;;;;;27.52;11.05;;;;;;;9.95;100.00;101396.81;6249665;28;20446;-72
2023/02/21 14:03:49;;;;;;;30.42;11.80;;;;;;;9.97;100.00;101399.34;6250919;28;20052;-73
2023/02/21 14:06:55;;;;;;;24.15;10.82;;;;;;;9.99;100.00;101402.75;6245688;28;20049;-72
2023/02/21 14:09:59;;;;;;;25.27;10.48;;;;;;;9.99;100.00;101403.66;6243608;28;20059;-72
2023/02/21 14:13:04;;;;;;;25.23;11.20;;;;;;;9.97;100.00;101397.59;6243545;28;20065;-73
2023/02/21 14:16:15;;;;;;;24.20;10.10;;;;;;;9.93;100.00;101401.25;6250868;28;20061;-72
2023/02/21 14:19:23;;;;;;;29.20;11.45;;;;;;;9.90;100.00;101399.63;6251317;28;20060;-72
2023/02/21 14:22:28;;;;;;;28.83;13.13;;;;;;;9.91;100.00;101400.47;6246916;28;20483;-72
2023/02/21 14:25:34;;;;;;;30.60;12.63;;;;;;;9.94;100.00;101392.44;6228241;28;20049;-72
2023/02/21 14:29:01;;;;;;;38.72;11.98;;;;;;;9.94;100.00;101404.72;6231443;28;20050;-72
2023/02/21 14:32:22;;;;;;;31.13;12.65;;;;;;;9.94;100.00;101402.94;6228487;28;20099;-73
2023/02/21 14:35:30;;;;;;;40.97;13.93;;;;;;;9.85;100.00;101398.06;6225373;28;20042;-72
2023/02/21 14:38:38;;;;;;;39.90;13.88;;;;;;;9.87;100.00;101401.50;6230701;28;20064;-72
2023/02/21 14:41:54;;;;;;;41.35;13.73;;;;;;;9.82;100.00;101403.47;6234421;28;20057;-72
2023/02/21 14:45:16;;;;;;;32.90;12.32;;;;;;;9.85;100.00;101398.06;6233770;28;20048;-72
2023/02/21 14:48:45;;;;;;;31.42;13.15;;;;;;;9.85;100.00;101401.53;6245106;28;20049;-73
2023/02/21 14:52:23;;;;;;;30.42;12.48;;;;;;;9.89;100.00;101404.91;6250642;28;20056;-72
2023/02/21 14:55:52;;;;;;;35.83;13.10;;;;;;;9.91;100.00;101396.06;6237081;28;20354;-71
2023/02/21 14:59:18;;;;;;;33.25;12.68;;;;;;;9.93;100.00;101401.25;6233939;28;20057;-71
2023/02/21 15:02:27;;;;;;;35.20;13.70;;;;;;;9.89;100.00;101408.38;6226029;28;20045;-71
2023/02/21 15:05:35;;;;;;;29.50;11.65;;;;;;;9.86;100.00;101410.31;6225639;28;20056;-71
2023/02/21 15:08:42;;;;;;;27.10;11.50;;;;;;;9.99;100.00;101413.25;6239613;28;20049;-72
2023/02/21 15:11:45;;;;;;;33.30;11.23;;;;;;;9.93;100.00;101416.16;6250209;28;20045;-71
2023/02/21 15:14:51;;;;;;;26.95;9.85;;;;;;;9.94;100.00;101404.72;6248467;28;20061;-71
2023/02/21 15:18:00;;;;;;;32.63;11.65;;;;;;;9.90;100.00;101406.59;6245984;28;20046;-74
2023/02/21 15:21:06;;;;;;;27.98;10.43;;;;;;;9.86;100.00;101397.19;6247856;28;20049;-71
2023/02/21 15:24:13;;;;;;;33.45;11.55;;;;;;;9.85;100.00;101398.06;6246931;28;20041;-71
2023/02/21 15:27:14;;;;;;;25.55;10.43;;;;;;;9.86;100.00;101397.19;6255121;28;20056;-71
2023/02/21 15:30:21;;;;;;;25.40;10.23;;;;;;;9.83;100.00;101403.38;6254978;28;20475;-72
2023/02/21 15:33:25;;;;;;;26.25;10.15;;;;;;;9.80;100.00;101402.66;6255086;28;20130;-72
2023/02/21 15:36:27;;;;;;;23.98;8.98;;;;;;;9.79;100.00;101399.16;6253976;28;20053;-71
2023/02/21 15:39:32;;;;;;;26.67;9.02;;;;;;;9.79;100.00;101400.94;6254403;28;20049;-71
2023/02/21 15:42:35;;;;;;;26.80;8.98;;;;;;;9.75;100.00;101392.31;6254904;28;20049;-71
2023/02/21 15:45:45;;;;;;;26.50;10.30;;;;;;;9.74;100.00;101395.88;6254282;28;20049;-71
2023/02/21 15:48:47;;;;;;;24.88;9.82;;;;;;;9.73;100.00;101390.69;6254687;28;20366;-71
2023/02/21 15:51:49;;;;;;;27.45;10.23;;;;;;;9.69;100.00;101391.72;6254358;28;20064;-71
2023/02/21 15:55:16;;;;;;;24.48;8.35;;;;;;;9.67;100.00;101394.41;6254308;28;20331;-71
2023/02/21 15:58:22;;;;;;;25.98;9.00;;;;;;;9.70;100.00;101394.28;6254369;28;20052;-71
2023/02/21 16:01:25;;;;;;;21.10;8.45;;;;;;;9.75;100.00;101392.31;6254441;28;20046;-71
2023/02/21 16:04:35;;;;;;;20.27;9.20;;;;;;;9.68;100.00;101395.28;6240555;28;20430;-71
2023/02/21 16:07:39;;;;;;;20.17;8.65;;;;;;;9.68;100.00;101392.66;6237239;28;20052;-71
2023/02/21 16:10:41;;;;;;;18.98;7.97;;;;;;;9.68;100.00;101393.50;6254255;28;20045;-71
2023/02/21 16:13:42;;;;;;;21.08;8.52;;;;;;;9.65;100.00;101388.38;6253942;28;20057;-71
2023/02/21 16:16:46;;;;;;;21.52;8.27;;;;;;;9.62;100.00;101393.72;6253540;28;20076;-71
2023/02/21 16:19:52;;;;;;;22.85;7.97;;;;;;;9.57;100.00;101398.31;6247226;28;20076;-71
2023/02/21 16:23:13;;;;;;;22.75;8.82;;;;;;;9.59;100.00;101399.13;6253257;28;20049;-71